Time;durP1;ratioP1;P1;durP2;ratioP2;P2;SDS_P1;SDS_P2;PMS_P1;PMS_P2;Temp;Humidity;BMP_temperature;BMP_pressure;BME280_temperature;BME280_humidity;BME280_pressure;Samples;Min_cycle;Max_cycle;Signal;HPM_P1;HPM_P2
2021/04/18 00:01:55;;;;;;;16.45;9.88;;;22.90;55.20;;;;;;5077505;28;20442;-69
2021/04/18 00:04:21;;;;;;;15.65;8.43;;;22.90;55.20;;;;;;5096631;28;20082;-69
2021/04/18 00:06:47;;;;;;;11.75;8.98;;;22.90;55.20;;;;;;5096418;28;20539;-69
2021/04/18 00:09:13;;;;;;;10.38;7.95;;;22.80;55.00;;;;;;5078375;28;20032;-68
2021/04/18 00:11:40;;;;;;;16.08;9.32;;;22.80;55.10;;;;;;5096172;28;20464;-68
2021/04/18 00:14:07;;;;;;;12.57;8.95;;;22.90;55.20;;;;;;5096164;28;20063;-69
2021/04/18 00:16:34;;;;;;;14.00;8.38;;;22.80;55.10;;;;;;5096114;28;20515;-69
2021/04/18 00:19:01;;;;;;;14.77;8.25;;;22.80;55.60;;;;;;5078006;28;20032;-69
2021/04/18 00:21:27;;;;;;;16.42;8.50;;;22.90;55.00;;;;;;5095860;28;20107;-69
2021/04/18 00:23:54;;;;;;;13.00;8.00;;;22.80;54.90;;;;;;5095900;28;20020;-69
2021/04/18 00:26:20;;;;;;;12.70;8.95;;;22.80;54.90;;;;;;5096414;28;20127;-69
2021/04/18 00:28:46;;;;;;;14.20;8.57;;;22.80;54.90;;;;;;5096016;28;20085;-69
2021/04/18 00:31:13;;;;;;;13.65;8.45;;;22.80;54.90;;;;;;5094705;28;20363;-69
2021/04/18 00:33:39;;;;;;;15.65;8.48;;;22.80;55.00;;;;;;5095404;28;20153;-69
2021/04/18 00:36:06;;;;;;;12.85;7.65;;;22.80;54.90;;;;;;5076765;28;20036;-69
2021/04/18 00:38:32;;;;;;;12.30;7.70;;;22.80;54.90;;;;;;5094355;28;20101;-69
2021/04/18 00:40:58;;;;;;;13.60;7.82;;;22.80;54.90;;;;;;5094736;28;20051;-68
2021/04/18 00:43:24;;;;;;;14.00;7.47;;;22.80;54.80;;;;;;5094074;28;20019;-68
2021/04/18 00:45:51;;;;;;;13.45;7.32;;;22.80;54.80;;;;;;5075993;28;20028;-68
2021/04/18 00:48:17;;;;;;;11.93;7.43;;;22.80;54.80;;;;;;5094354;28;20020;-68
2021/04/18 00:50:43;;;;;;;10.35;7.22;;;22.80;54.80;;;;;;5055998;28;20445;-67
2021/04/18 00:53:10;;;;;;;7.55;5.97;;;22.80;54.80;;;;;;5067124;28;20457;-68
2021/04/18 00:55:41;;;;;;;13.18;6.38;;;22.80;54.80;;;;;;5094982;28;20024;-68
2021/04/18 00:58:08;;;;;;;10.85;8.52;;;22.80;54.70;;;;;;5094613;28;20457;-68
2021/04/18 01:00:35;;;;;;;12.43;8.18;;;22.70;54.70;;;;;;5093967;28;20082;-69
2021/04/18 01:03:06;;;;;;;9.52;6.82;;;22.80;54.70;;;;;;5076297;28;20031;-69
2021/04/18 01:05:35;;;;;;;9.38;6.68;;;22.70;54.60;;;;;;5093836;28;20119;-69
2021/04/18 01:08:03;;;;;;;10.82;7.32;;;22.70;54.50;;;;;;5076050;28;20032;-68
2021/04/18 01:10:29;;;;;;;10.80;7.13;;;22.80;54.60;;;;;;5075158;28;20481;-70
2021/04/18 01:12:55;;;;;;;10.30;7.20;;;22.70;54.50;;;;;;5076250;28;20035;-68
2021/04/18 01:15:22;;;;;;;9.27;6.38;;;22.70;54.50;;;;;;5093666;28;20119;-67
2021/04/18 01:17:48;;;;;;;12.45;7.70;;;22.70;54.60;;;;;;5094171;28;20024;-67
2021/04/18 01:20:18;;;;;;;7.93;6.38;;;22.70;54.50;;;;;;5074961;28;20028;-68
2021/04/18 01:22:45;;;;;;;9.18;6.75;;;22.70;54.50;;;;;;5075909;28;20124;-68
2021/04/18 01:25:29;;;;;;;9.55;6.15;;;22.70;54.50;;;;;;5075152;28;20036;-68
2021/04/18 01:28:05;;;;;;;11.68;7.20;;;22.70;54.50;;;;;;5075844;28;20394;-67
2021/04/18 01:30:31;;;;;;;12.77;6.38;;;22.70;54.40;;;;;;5075336;28;20367;-68
2021/04/18 01:32:59;;;;;;;8.88;6.15;;;22.70;54.40;;;;;;5075531;28;20020;-68
2021/04/18 01:35:26;;;;;;;11.88;6.35;;;22.70;54.40;;;;;;5027683;28;829970;-68
2021/04/18 01:37:52;;;;;;;10.30;6.20;;;22.70;54.40;;;;;;5057206;28;20535;-68
2021/04/18 01:40:22;;;;;;;11.90;6.18;;;22.70;54.30;;;;;;5094704;28;20030;-68
2021/04/18 01:42:49;;;;;;;6.50;5.18;;;22.70;54.30;;;;;;5076449;28;20034;-68
2021/04/18 01:45:18;;;;;;;9.73;6.22;;;22.70;54.20;;;;;;5094471;28;20028;-69
2021/04/18 01:47:45;;;;;;;10.90;5.93;;;22.60;54.10;;;;;;5059600;28;20486;-68
2021/04/18 01:50:14;;;;;;;7.65;5.95;;;22.70;54.20;;;;;;5076703;28;20473;-68
2021/04/18 01:52:41;;;;;;;12.57;6.10;;;22.60;54.10;;;;;;5094181;28;20081;-69
2021/04/18 01:55:08;;;;;;;8.55;5.32;;;22.70;54.10;;;;;;5075979;28;20134;-68
2021/04/18 01:57:34;;;;;;;10.88;5.50;;;22.70;54.00;;;;;;5093359;28;20024;-68
2021/04/18 02:00:08;;;;;;;8.55;5.65;;;22.60;53.90;;;;;;5075425;28;20024;-68
2021/04/18 02:02:41;;;;;;;8.48;5.25;;;22.60;53.80;;;;;;5094297;28;20073;-69
2021/04/18 02:05:17;;;;;;;8.93;4.72;;;22.70;53.80;;;;;;5075496;28;20020;-70
2021/04/18 02:07:44;;;;;;;7.22;5.38;;;22.60;53.80;;;;;;5075305;28;20024;-68
2021/04/18 02:10:14;;;;;;;6.50;5.03;;;22.60;53.70;;;;;;5076196;28;20381;-69
2021/04/18 02:12:43;;;;;;;8.85;5.20;;;22.60;53.70;;;;;;5075216;28;20530;-69
2021/04/18 02:15:11;;;;;;;10.02;6.43;;;22.60;53.70;;;;;;5075567;28;20027;-69
2021/04/18 02:17:38;;;;;;;7.60;5.82;;;22.60;53.60;;;;;;5075612;28;20035;-69
2021/04/18 02:20:06;;;;;;;10.70;5.53;;;22.60;53.60;;;;;;5062802;28;20028;-69
2021/04/18 02:22:34;;;;;;;9.07;6.00;;;22.60;53.60;;;;;;5091161;28;20016;-69
2021/04/18 02:25:02;;;;;;;9.07;5.63;;;22.60;53.60;;;;;;5075328;28;20408;-69
2021/04/18 02:27:28;;;;;;;7.95;4.95;;;22.60;53.60;;;;;;5093163;28;20533;-69
2021/04/18 02:30:04;;;;;;;6.45;4.90;;;22.60;53.50;;;;;;5055410;28;20086;-69
2021/04/18 02:32:35;;;;;;;6.18;4.88;;;22.60;53.50;;;;;;5066995;28;20032;-69
2021/04/18 02:35:05;;;;;;;8.32;5.70;;;22.60;53.40;;;;;;5058310;28;20370;-69
2021/04/18 02:37:32;;;;;;;11.95;6.20;;;22.60;53.30;;;;;;5074729;28;20118;-69
2021/04/18 02:39:58;;;;;;;10.05;5.97;;;22.60;53.40;;;;;;5093352;28;20032;-69
2021/04/18 02:42:24;;;;;;;10.70;5.97;;;22.60;53.40;;;;;;5074959;28;20124;-69
2021/04/18 02:44:52;;;;;;;13.52;6.13;;;22.60;53.40;;;;;;5058751;28;20040;-69
2021/04/18 02:47:19;;;;;;;9.95;6.53;;;22.60;53.40;;;;;;5075291;28;20180;-69
2021/04/18 02:49:50;;;;;;;6.53;5.05;;;22.60;53.40;;;;;;5093733;28;20028;-69
2021/04/18 02:52:17;;;;;;;7.55;5.07;;;22.60;53.40;;;;;;5093268;28;20048;-69
2021/04/18 02:54:43;;;;;;;8.55;6.35;;;22.60;53.50;;;;;;5058485;28;20449;-69
2021/04/18 02:57:13;;;;;;;10.13;5.97;;;22.60;53.50;;;;;;5074723;28;20127;-69
2021/04/18 02:59:39;;;;;;;8.00;5.47;;;22.60;53.50;;;;;;5075406;28;20098;-69
2021/04/18 03:02:05;;;;;;;9.25;5.85;;;22.60;53.50;;;;;;5092700;28;20028;-69
2021/04/18 03:04:36;;;;;;;9.98;5.60;;;22.60;53.50;;;;;;5075063;28;20024;-69
2021/04/18 03:07:02;;;;;;;10.10;5.85;;;22.50;53.50;;;;;;5092869;28;20035;-69
2021/04/18 03:09:29;;;;;;;8.32;5.47;;;22.50;53.50;;;;;;5092898;28;20115;-69
2021/04/18 03:11:56;;;;;;;6.45;5.10;;;22.50;53.50;;;;;;5058348;28;20089;-69
2021/04/18 03:14:28;;;;;;;9.82;6.68;;;22.50;53.60;;;;;;5074694;28;20108;-69
2021/04/18 03:16:55;;;;;;;13.40;6.43;;;22.60;53.60;;;;;;5092791;28;20100;-69
2021/04/18 03:19:26;;;;;;;9.57;5.22;;;22.50;53.70;;;;;;5074785;28;20109;-69
2021/04/18 03:21:58;;;;;;;10.77;5.78;;;22.50;53.70;;;;;;5075855;28;20504;-69
2021/04/18 03:24:24;;;;;;;15.93;8.48;;;22.50;53.70;;;;;;5074376;28;20044;-69
2021/04/18 03:26:51;;;;;;;11.55;5.80;;;22.50;53.80;;;;;;5074776;28;20028;-68
2021/04/18 03:29:18;;;;;;;11.48;6.55;;;22.50;53.80;;;;;;5092595;28;20039;-69
2021/04/18 03:31:44;;;;;;;7.72;5.50;;;22.50;53.90;;;;;;5074300;28;20089;-69
2021/04/18 03:34:11;;;;;;;8.63;5.50;;;22.50;53.90;;;;;;5074075;28;20048;-69
2021/04/18 03:36:38;;;;;;;9.93;6.00;;;22.50;53.80;;;;;;5092551;28;20034;-69
2021/04/18 03:39:14;;;;;;;9.23;5.38;;;22.50;53.90;;;;;;5074720;28;20424;-69
2021/04/18 03:41:43;;;;;;;11.27;6.05;;;22.50;53.90;;;;;;5074437;28;20101;-69
2021/04/18 03:44:09;;;;;;;14.63;7.45;;;22.50;53.90;;;;;;5074740;28;20062;-69
2021/04/18 03:46:37;;;;;;;7.72;5.05;;;22.50;54.00;;;;;;5073991;28;20346;-69
2021/04/18 03:49:04;;;;;;;8.52;5.30;;;22.50;53.90;;;;;;5074609;28;20040;-69
2021/04/18 03:51:31;;;;;;;9.70;6.05;;;22.50;53.90;;;;;;5073663;28;20072;-70
2021/04/18 03:54:03;;;;;;;7.07;5.45;;;22.50;54.00;;;;;;5074090;28;20028;-70
2021/04/18 03:56:30;;;;;;;12.25;6.97;;;22.50;54.10;;;;;;5091811;28;20035;-69
2021/04/18 03:58:58;;;;;;;9.25;5.97;;;22.50;54.20;;;;;;5074925;28;20077;-69
2021/04/18 04:01:26;;;;;;;10.98;6.70;;;22.40;54.10;;;;;;5073915;28;20496;-70
2021/04/18 04:03:52;;;;;;;10.93;6.18;;;22.50;54.30;;;;;;5074504;28;20028;-69
2021/04/18 04:06:23;;;;;;;9.82;5.13;;;22.40;54.20;;;;;;5074475;28;20500;-69
2021/04/18 04:08:56;;;;;;;10.80;6.65;;;22.40;54.10;;;;;;5072335;28;20055;-69
2021/04/18 04:11:27;;;;;;;10.50;6.57;;;22.50;54.30;;;;;;5074072;28;20389;-69
2021/04/18 04:13:53;;;;;;;10.23;6.10;;;22.50;54.30;;;;;;5074432;28;20040;-69
2021/04/18 04:16:23;;;;;;;7.65;5.68;;;22.40;54.20;;;;;;5074047;28;20028;-69
2021/04/18 04:18:51;;;;;;;11.70;5.38;;;22.50;54.30;;;;;;5058024;28;20039;-69
2021/04/18 04:21:35;;;;;;;8.40;5.20;;;22.40;54.30;;;;;;5066318;28;20040;-69
2021/04/18 04:24:13;;;;;;;9.65;4.93;;;22.40;54.30;;;;;;5096346;28;20038;-69
2021/04/18 04:26:39;;;;;;;8.60;5.53;;;22.40;54.30;;;;;;5096136;28;20030;-69
2021/04/18 04:29:05;;;;;;;8.50;5.70;;;22.40;54.30;;;;;;5096343;28;20031;-69
2021/04/18 04:31:31;;;;;;;8.77;4.85;;;22.40;54.40;;;;;;5095890;28;20040;-69
2021/04/18 04:33:57;;;;;;;12.23;5.82;;;22.40;54.40;;;;;;5095961;28;20068;-69
2021/04/18 04:36:24;;;;;;;10.38;5.88;;;22.40;54.40;;;;;;5095609;28;20489;-68
2021/04/18 04:38:50;;;;;;;7.63;5.28;;;22.40;54.40;;;;;;5096195;28;20028;-69
2021/04/18 04:41:16;;;;;;;9.02;5.43;;;22.40;54.40;;;;;;5095483;28;20436;-68
2021/04/18 04:43:45;;;;;;;7.05;4.80;;;22.40;54.50;;;;;;5077882;28;20366;-69
2021/04/18 04:46:11;;;;;;;7.70;5.15;;;22.40;54.50;;;;;;5077711;28;20028;-69
2021/04/18 04:48:37;;;;;;;8.98;5.38;;;22.40;54.50;;;;;;5095342;28;20031;-68
2021/04/18 04:51:03;;;;;;;10.55;5.50;;;22.40;54.50;;;;;;5077836;28;20473;-68
2021/04/18 04:53:29;;;;;;;9.90;5.05;;;22.40;54.50;;;;;;5095387;28;20138;-68
2021/04/18 04:55:55;;;;;;;6.45;4.53;;;22.30;54.50;;;;;;5095439;28;20389;-68
2021/04/18 04:58:21;;;;;;;6.35;5.20;;;22.40;54.50;;;;;;5077433;28;20375;-68
2021/04/18 05:00:47;;;;;;;9.52;5.35;;;22.40;54.50;;;;;;5095700;28;20399;-69
2021/04/18 05:03:13;;;;;;;8.43;5.13;;;22.30;54.50;;;;;;5095176;28;20165;-68
2021/04/18 05:05:39;;;;;;;6.32;5.43;;;22.40;54.60;;;;;;5076966;28;20039;-68
2021/04/18 05:08:06;;;;;;;7.50;5.10;;;22.30;54.50;;;;;;5095779;28;20373;-68
2021/04/18 05:10:32;;;;;;;9.73;4.85;;;22.40;54.60;;;;;;5094945;28;20074;-69
2021/04/18 05:12:58;;;;;;;8.95;4.45;;;22.40;54.60;;;;;;5095260;28;20028;-68
2021/04/18 05:15:24;;;;;;;6.70;4.40;;;22.40;54.60;;;;;;5056747;28;20094;-68
2021/04/18 05:17:50;;;;;;;9.30;5.13;;;22.40;54.60;;;;;;5074960;28;20070;-69
2021/04/18 05:20:18;;;;;;;10.00;5.45;;;22.40;54.60;;;;;;5072994;28;20032;-69
2021/04/18 05:22:44;;;;;;;6.90;5.20;;;22.30;54.60;;;;;;5094427;28;20020;-69
2021/04/18 05:25:13;;;;;;;9.43;5.57;;;22.30;54.60;;;;;;5095196;28;20114;-69
2021/04/18 05:27:39;;;;;;;10.18;4.95;;;22.30;54.60;;;;;;5076569;28;20365;-69
2021/04/18 05:30:07;;;;;;;7.65;5.35;;;22.30;54.50;;;;;;5094972;28;20027;-69
2021/04/18 05:32:34;;;;;;;9.23;4.75;;;22.30;54.60;;;;;;5075231;28;20076;-69
2021/04/18 05:35:00;;;;;;;7.03;4.72;;;22.30;54.50;;;;;;5094681;28;20063;-69
2021/04/18 05:37:26;;;;;;;10.10;5.43;;;22.30;54.50;;;;;;5076262;28;20039;-69
2021/04/18 05:39:52;;;;;;;7.28;5.57;;;22.20;54.50;;;;;;5095109;28;20020;-69
2021/04/18 05:42:19;;;;;;;7.75;5.22;;;22.30;54.50;;;;;;5076646;28;20028;-69
2021/04/18 05:44:45;;;;;;;14.02;5.20;;;22.30;54.50;;;;;;5094605;28;20470;-69
2021/04/18 05:47:11;;;;;;;9.05;5.32;;;22.30;54.50;;;;;;5094670;28;20085;-69
2021/04/18 05:49:37;;;;;;;7.03;4.97;;;22.30;54.50;;;;;;5093948;28;20032;-69
2021/04/18 05:52:04;;;;;;;7.47;4.82;;;22.30;54.50;;;;;;5094938;28;20106;-68
2021/04/18 05:54:30;;;;;;;8.18;6.00;;;22.20;54.40;;;;;;5094095;28;20389;-69
2021/04/18 05:56:56;;;;;;;8.95;4.88;;;22.30;54.40;;;;;;5092826;28;20127;-69
2021/04/18 05:59:22;;;;;;;8.35;5.00;;;22.20;54.40;;;;;;5093802;28;20482;-69
2021/04/18 06:01:48;;;;;;;7.60;5.03;;;22.30;54.50;;;;;;5094252;28;20107;-68
2021/04/18 06:04:14;;;;;;;10.40;5.40;;;22.20;54.40;;;;;;5093039;28;20115;-69
2021/04/18 06:06:40;;;;;;;10.63;5.70;;;22.20;54.40;;;;;;5052208;28;20098;-69
2021/04/18 06:09:06;;;;;;;10.73;5.90;;;22.20;54.40;;;;;;5058936;28;20044;-68
2021/04/18 06:11:32;;;;;;;10.15;5.68;;;22.20;54.40;;;;;;5055756;28;20157;-69
2021/04/18 06:13:58;;;;;;;9.85;5.60;;;22.20;54.30;;;;;;5059161;28;20028;-68
2021/04/18 06:16:24;;;;;;;5.85;5.22;;;22.20;54.30;;;;;;5058531;28;20036;-68
2021/04/18 06:18:50;;;;;;;8.80;6.20;;;22.20;54.30;;;;;;5093938;28;20400;-69
2021/04/18 06:21:16;;;;;;;10.10;6.50;;;22.20;54.30;;;;;;5093420;28;20363;-68
2021/04/18 06:23:42;;;;;;;10.40;6.65;;;22.20;54.30;;;;;;5075822;28;20035;-68
2021/04/18 06:26:08;;;;;;;9.27;6.05;;;22.20;54.30;;;;;;5094153;28;20085;-68
2021/04/18 06:28:34;;;;;;;9.60;5.97;;;22.20;54.20;;;;;;5093422;28;20020;-67
2021/04/18 06:31:00;;;;;;;9.23;6.20;;;22.20;54.20;;;;;;5058950;28;20166;-68
2021/04/18 06:33:26;;;;;;;9.35;6.53;;;22.20;54.20;;;;;;5093220;28;20060;-68
2021/04/18 06:35:53;;;;;;;9.48;5.57;;;22.20;54.70;;;;;;5075286;28;20051;-68
2021/04/18 06:38:19;;;;;;;12.27;6.38;;;22.20;54.20;;;;;;5092917;28;20417;-68
2021/04/18 06:40:46;;;;;;;8.68;5.95;;;22.20;54.20;;;;;;5074353;28;20036;-68
2021/04/18 06:43:12;;;;;;;9.45;6.55;;;22.20;54.10;;;;;;5074930;28;20482;-69
2021/04/18 06:45:39;;;;;;;12.20;7.10;;;22.20;54.10;;;;;;5074694;28;20107;-69
2021/04/18 06:48:06;;;;;;;13.15;6.63;;;22.20;54.10;;;;;;5074568;28;20036;-68
2021/04/18 06:50:32;;;;;;;12.75;6.70;;;22.20;54.00;;;;;;5093040;28;20031;-68
2021/04/18 06:52:59;;;;;;;11.70;6.30;;;22.20;54.00;;;;;;5075260;28;20013;-68
2021/04/18 06:55:28;;;;;;;10.70;6.10;;;22.20;54.00;;;;;;5057605;28;20068;-69
2021/04/18 06:57:54;;;;;;;10.10;6.07;;;22.20;53.90;;;;;;5093243;28;20539;-69
2021/04/18 07:00:21;;;;;;;10.95;6.55;;;22.20;53.90;;;;;;5074515;28;20020;-69
2021/04/18 07:02:47;;;;;;;12.38;6.63;;;22.30;53.90;;;;;;5075327;28;20077;-69
2021/04/18 07:05:15;;;;;;;11.85;6.60;;;22.30;53.90;;;;;;5092917;28;20031;-69
2021/04/18 07:07:43;;;;;;;9.82;7.10;;;22.20;53.80;;;;;;5075070;28;20049;-69
2021/04/18 07:10:26;;;;;;;11.48;7.60;;;22.30;53.90;;;;;;5093075;28;20032;-69
2021/04/18 07:12:55;;;;;;;11.55;8.00;;;22.30;53.90;;;;;;5092573;28;20082;-69
2021/04/18 07:15:44;;;;;;;10.48;7.30;;;22.30;53.90;;;;;;5093367;28;20035;-68
2021/04/18 07:18:14;;;;;;;9.60;7.68;;;22.30;53.80;;;;;;5092549;28;20020;-67
2021/04/18 07:20:55;;;;;;;13.75;8.60;;;22.30;53.70;;;;;;5093458;28;20060;-68
2021/04/18 07:23:30;;;;;;;11.10;9.13;;;22.30;53.70;;;;;;5093071;28;20024;-69
2021/04/18 07:25:57;;;;;;;13.68;9.45;;;22.40;53.70;;;;;;5093509;28;20040;-68
2021/04/18 07:28:25;;;;;;;14.35;9.60;;;22.40;53.70;;;;;;5092809;28;20040;-68
2021/04/18 07:30:55;;;;;;;12.43;8.63;;;22.50;53.70;;;;;;5092849;28;20516;-67
2021/04/18 07:33:21;;;;;;;14.02;9.07;;;22.50;53.70;;;;;;5092718;28;20032;-68
2021/04/18 07:35:49;;;;;;;12.98;8.85;;;22.50;53.60;;;;;;5092208;28;20052;-68
2021/04/18 07:38:21;;;;;;;11.93;8.02;;;22.50;53.60;;;;;;5093153;28;20138;-67
2021/04/18 07:40:50;;;;;;;17.35;9.85;;;22.50;53.50;;;;;;5092784;28;20037;-68
2021/04/18 07:43:18;;;;;;;14.27;9.35;;;22.50;53.40;;;;;;5089346;28;20029;-67
2021/04/18 07:45:46;;;;;;;13.38;8.57;;;22.50;53.30;;;;;;5077310;28;20077;-67
2021/04/18 07:48:14;;;;;;;11.95;8.02;;;22.60;53.30;;;;;;5074754;28;20032;-67
2021/04/18 07:50:43;;;;;;;15.32;9.35;;;22.60;53.20;;;;;;5092541;28;20028;-67
2021/04/18 07:53:09;;;;;;;16.92;10.05;;;22.60;53.10;;;;;;5092449;28;20099;-66
2021/04/18 07:55:36;;;;;;;15.30;9.85;;;22.70;53.00;;;;;;5076175;28;20032;-62
2021/04/18 07:58:04;;;;;;;16.05;9.70;;;22.60;52.80;;;;;;5076853;28;20323;-63
2021/04/18 08:00:31;;;;;;;14.70;10.43;;;22.70;52.80;;;;;;5095996;28;20024;-63
2021/04/18 08:02:57;;;;;;;15.32;9.52;;;22.70;52.80;;;;;;5096374;28;20024;-64
2021/04/18 08:05:29;;;;;;;14.13;8.52;;;22.70;52.70;;;;;;5096435;28;20032;-63
2021/04/18 08:08:12;;;;;;;13.10;7.88;;;22.70;52.40;;;;;;5095483;28;20509;-64
2021/04/18 08:10:49;;;;;;;11.85;9.05;;;22.70;52.20;;;;;;5076914;28;20493;-62
2021/04/18 08:13:21;;;;;;;12.00;7.10;;;22.80;52.30;;;;;;5092481;28;20833;-64
2021/04/18 08:15:57;;;;;;;11.38;7.85;;;22.80;52.20;;;;;;5077647;28;20035;-64
2021/04/18 08:18:44;;;;;;;16.13;7.63;;;22.80;52.70;;;;;;5095330;28;20103;-64
2021/04/18 08:21:41;;;;;;;13.40;7.65;;;22.80;52.10;;;;;;5085294;28;20046;-65
2021/04/18 08:24:33;;;;;;;7.97;5.80;;;22.80;52.20;;;;;;5095366;28;20024;-67
2021/04/18 08:27:16;;;;;;;6.90;5.00;;;22.80;52.50;;;;;;5065962;28;20040;-64
2021/04/18 08:29:58;;;;;;;8.32;5.70;;;22.80;52.50;;;;;;5049394;28;20033;-61
2021/04/18 08:32:44;;;;;;;14.23;5.28;;;22.80;52.60;;;;;;5094829;28;20035;-61
2021/04/18 08:35:15;;;;;;;8.60;5.18;;;22.80;52.70;;;;;;5061053;28;20526;-61
2021/04/18 08:37:41;;;;;;;7.30;4.25;;;22.90;52.70;;;;;;5093844;28;20036;-66
2021/04/18 08:40:08;;;;;;;10.95;4.88;;;22.90;52.70;;;;;;5076265;28;20019;-68
2021/04/18 08:42:35;;;;;;;7.57;4.47;;;22.80;52.50;;;;;;5094666;28;20097;-68
2021/04/18 08:45:01;;;;;;;7.57;4.70;;;22.90;52.60;;;;;;5095745;28;20052;-68
2021/04/18 08:47:30;;;;;;;12.73;4.53;;;22.90;52.60;;;;;;5095387;28;20028;-65
2021/04/18 08:50:15;;;;;;;192.35;171.98;;;22.90;52.70;;;;;;5077134;28;20062;-65
2021/04/18 08:52:42;;;;;;;132.50;117.15;;;22.80;52.70;;;;;;5093922;28;20043;-64
2021/04/18 08:55:11;;;;;;;61.00;54.40;;;22.90;52.70;;;;;;5076860;28;20031;-63
2021/04/18 08:57:38;;;;;;;56.30;50.30;;;22.90;52.60;;;;;;5093306;28;20027;-64
2021/04/18 09:00:08;;;;;;;47.22;42.22;;;22.90;52.60;;;;;;5077316;28;20047;-71
2021/04/18 09:02:34;;;;;;;42.20;35.22;;;23.00;52.80;;;;;;5095407;28;20114;-56
2021/04/18 09:05:02;;;;;;;31.15;26.45;;;23.00;52.90;;;;;;5093755;28;20496;-56
2021/04/18 09:07:33;;;;;;;25.10;22.50;;;23.10;53.00;;;;;;5094409;28;20462;-55
2021/04/18 09:10:04;;;;;;;22.48;20.13;;;23.10;53.00;;;;;;5095259;28;20470;-56
2021/04/18 09:12:32;;;;;;;26.85;20.88;;;23.10;53.00;;;;;;5095189;28;20535;-55
2021/04/18 09:14:58;;;;;;;19.52;17.45;;;23.20;53.00;;;;;;5095193;28;20016;-56
2021/04/18 09:17:29;;;;;;;14.98;11.55;;;23.20;53.00;;;;;;5094771;28;20385;-56
2021/04/18 09:20:00;;;;;;;8.77;7.47;;;23.30;52.90;;;;;;5095166;28;20088;-58
2021/04/18 09:22:31;;;;;;;7.57;6.47;;;23.40;52.90;;;;;;5095040;28;20024;-56
2021/04/18 09:25:01;;;;;;;8.43;4.82;;;23.40;52.70;;;;;;5094639;28;20048;-56
2021/04/18 09:27:32;;;;;;;6.22;4.95;;;23.50;53.20;;;;;;5094728;28;20032;-58
2021/04/18 09:30:10;;;;;;;7.97;4.70;;;23.60;52.50;;;;;;5094830;28;20158;-57
2021/04/18 09:32:39;;;;;;;5.95;3.88;;;23.70;52.40;;;;;;5080858;28;20024;-58
2021/04/18 09:35:08;;;;;;;4.25;3.75;;;23.80;52.40;;;;;;5078603;28;20044;-57
2021/04/18 09:37:51;;;;;;;7.25;4.03;;;23.80;52.20;;;;;;5094380;28;20258;-57
2021/04/18 09:40:18;;;;;;;6.85;3.42;;;23.90;52.20;;;;;;5094655;28;20024;-57
2021/04/18 09:42:48;;;;;;;6.57;3.80;;;24.00;52.10;;;;;;5076452;28;20031;-57
2021/04/18 09:45:18;;;;;;;6.15;3.58;;;24.10;52.00;;;;;;5075657;28;20158;-57
2021/04/18 09:47:46;;;;;;;4.50;2.92;;;24.10;51.70;;;;;;5074058;28;20052;-58
2021/04/18 09:50:21;;;;;;;6.35;4.97;;;24.20;51.70;;;;;;5074086;28;20028;-57
2021/04/18 09:52:48;;;;;;;7.75;4.75;;;24.20;51.50;;;;;;5073923;28;20058;-57
2021/04/18 09:55:17;;;;;;;6.13;3.92;;;24.30;51.60;;;;;;5061321;28;20040;-57
2021/04/18 09:57:53;;;;;;;4.68;3.60;;;24.40;51.50;;;;;;5093881;28;20043;-56
2021/04/18 10:00:24;;;;;;;6.28;3.33;;;24.40;51.40;;;;;;5093979;28;20115;-57
2021/04/18 10:03:07;;;;;;;7.43;3.55;;;24.50;51.40;;;;;;5093853;28;20028;-58
2021/04/18 10:05:37;;;;;;;4.22;2.92;;;24.50;51.40;;;;;;5093791;28;20153;-56
2021/04/18 10:08:23;;;;;;;4.82;2.80;;;24.60;51.30;;;;;;5093953;28;20222;-56
2021/04/18 10:10:55;;;;;;;5.00;2.65;;;24.70;51.20;;;;;;5093736;28;20032;-57
2021/04/18 10:13:41;;;;;;;2.75;2.55;;;24.70;50.90;;;;;;5093644;28;20031;-56
2021/04/18 10:16:08;;;;;;;3.95;2.78;;;24.70;51.10;;;;;;5093381;28;20381;-56
2021/04/18 10:18:37;;;;;;;3.83;2.53;;;24.80;50.90;;;;;;5092568;28;20044;-57
2021/04/18 10:21:17;;;;;;;4.43;2.58;;;24.80;51.00;;;;;;5093482;28;20025;-56
2021/04/18 10:23:43;;;;;;;;;;;24.80;51.10;;;;;;5093697;28;20035;-56
2021/04/18 10:26:09;;;;;;;3.80;2.55;;;24.80;51.40;;;;;;5093502;28;20259;-57
2021/04/18 10:28:35;;;;;;;6.25;2.88;;;24.90;50.60;;;;;;5093089;28;20077;-56
2021/04/18 10:31:02;;;;;;;6.75;3.42;;;24.90;50.70;;;;;;5093378;28;20763;-57
2021/04/18 10:33:28;;;;;;;9.35;3.95;;;24.90;50.80;;;;;;5093077;28;20150;-56
2021/04/18 10:35:58;;;;;;;5.60;3.10;;;24.90;50.70;;;;;;5092910;28;20473;-56
2021/04/18 10:38:25;;;;;;;5.95;2.90;;;24.90;50.70;;;;;;5093249;28;20100;-57
2021/04/18 10:40:51;;;;;;;6.00;2.63;;;24.90;50.70;;;;;;5093365;28;20042;-57
2021/04/18 10:43:17;;;;;;;5.88;2.90;;;24.90;50.70;;;;;;5093065;28;20048;-57
2021/04/18 10:45:44;;;;;;;4.93;3.00;;;24.90;50.50;;;;;;5093155;28;20020;-57
2021/04/18 10:48:10;;;;;;;5.07;2.50;;;25.00;50.60;;;;;;5092872;28;20085;-58
2021/04/18 10:50:36;;;;;;;8.38;3.20;;;25.00;50.50;;;;;;5092708;28;20031;-56
2021/04/18 10:53:03;;;;;;;4.78;2.95;;;25.00;50.50;;;;;;5092841;28;20028;-57
2021/04/18 10:55:29;;;;;;;6.05;3.00;;;25.00;50.50;;;;;;5092661;28;20081;-57
2021/04/18 10:57:55;;;;;;;6.28;2.88;;;25.00;50.50;;;;;;5093157;28;20099;-57
2021/04/18 11:00:22;;;;;;;8.25;3.15;;;25.10;50.60;;;;;;5092951;28;20032;-57
2021/04/18 11:02:48;;;;;;;65.03;58.25;;;25.10;50.50;;;;;;5092609;28;20080;-56
2021/04/18 11:05:14;;;;;;;18.55;15.60;;;25.10;50.50;;;;;;5074561;28;20032;-56
2021/04/18 11:07:40;;;;;;;6.72;5.10;;;25.10;50.30;;;;;;5092813;28;20032;-58
2021/04/18 11:10:07;;;;;;;7.97;3.83;;;25.10;50.30;;;;;;5092830;28;20104;-58
2021/04/18 11:12:33;;;;;;;6.35;2.75;;;25.10;50.30;;;;;;5092999;28;20413;-60
2021/04/18 11:15:00;;;;;;;3.92;2.30;;;25.20;50.40;;;;;;5092610;28;20162;-60
2021/04/18 11:17:26;;;;;;;5.32;3.38;;;25.20;50.40;;;;;;5074543;28;20095;-57
2021/04/18 11:19:52;;;;;;;6.80;2.88;;;25.30;50.30;;;;;;5068909;28;20470;-59
2021/04/18 11:22:19;;;;;;;3.10;2.47;;;25.30;50.10;;;;;;5072340;28;20062;-58
2021/04/18 11:24:45;;;;;;;5.05;2.30;;;25.30;50.20;;;;;;5072264;28;20048;-59
2021/04/18 11:27:11;;;;;;;5.15;2.28;;;25.30;50.20;;;;;;5072754;28;20052;-59
2021/04/18 11:29:42;;;;;;;4.88;3.60;;;25.40;50.20;;;;;;5075218;28;20039;-59
2021/04/18 11:32:09;;;;;;;5.78;4.03;;;25.50;50.20;;;;;;5076597;28;20032;-59
2021/04/18 11:34:36;;;;;;;7.40;3.00;;;25.50;50.00;;;;;;5076232;28;20040;-58
2021/04/18 11:37:02;;;;;;;4.28;3.05;;;25.60;50.00;;;;;;5076270;28;20090;-59
2021/04/18 11:39:29;;;;;;;4.28;2.78;;;25.60;49.90;;;;;;5075805;28;20033;-58
2021/04/18 11:41:55;;;;;;;4.15;3.03;;;25.70;49.80;;;;;;5076546;28;20025;-58
2021/04/18 11:44:21;;;;;;;4.03;2.75;;;25.70;49.60;;;;;;5075997;28;20029;-58
2021/04/18 11:46:47;;;;;;;5.15;2.65;;;25.80;49.60;;;;;;5075739;28;20470;-59
2021/04/18 11:49:15;;;;;;;4.68;2.72;;;25.80;49.50;;;;;;5076026;28;20032;-59
2021/04/18 11:51:42;;;;;;;5.75;3.20;;;25.90;49.40;;;;;;5076210;28;20037;-59
2021/04/18 11:54:09;;;;;;;4.88;2.58;;;26.00;49.30;;;;;;5076474;28;20405;-59
2021/04/18 11:56:35;;;;;;;4.60;3.00;;;26.00;49.30;;;;;;5075884;28;20020;-60
2021/04/18 11:59:02;;;;;;;7.03;3.15;;;26.10;49.30;;;;;;5075990;28;20046;-58
2021/04/18 12:01:28;;;;;;;4.60;3.88;;;26.10;49.10;;;;;;5076371;28;20048;-58
2021/04/18 12:03:54;;;;;;;5.70;3.78;;;26.10;49.00;;;;;;5076315;28;20055;-58
2021/04/18 12:06:20;;;;;;;5.68;3.20;;;26.20;49.10;;;;;;5074768;28;20459;-58
2021/04/18 12:08:47;;;;;;;5.97;3.33;;;26.10;49.00;;;;;;5076136;28;20035;-58
2021/04/18 12:11:13;;;;;;;4.13;2.90;;;26.20;49.00;;;;;;5075868;28;20467;-58
2021/04/18 12:13:39;;;;;;;8.32;2.83;;;26.20;49.00;;;;;;5075951;28;20040;-60
2021/04/18 12:16:05;;;;;;;7.47;2.92;;;26.20;49.10;;;;;;5075768;28;20037;-58
2021/04/18 12:18:31;;;;;;;4.60;3.13;;;26.20;49.10;;;;;;5075916;28;20469;-59
2021/04/18 12:20:57;;;;;;;7.05;2.95;;;26.20;49.10;;;;;;5075446;28;20050;-58
2021/04/18 12:23:23;;;;;;;4.30;2.70;;;26.20;49.20;;;;;;5075419;28;20474;-59
2021/04/18 12:25:49;;;;;;;6.25;2.88;;;26.20;49.20;;;;;;5075123;28;20024;-59
2021/04/18 12:28:15;;;;;;;6.68;2.67;;;26.20;49.20;;;;;;5075781;28;20108;-59
2021/04/18 12:30:41;;;;;;;4.47;3.38;;;26.20;49.20;;;;;;5075412;28;20032;-60
2021/04/18 12:33:07;;;;;;;8.02;2.88;;;26.20;49.30;;;;;;5075393;28;20028;-58
2021/04/18 12:35:34;;;;;;;3.80;2.80;;;26.20;49.30;;;;;;5075097;28;20108;-60
2021/04/18 12:38:00;;;;;;;4.80;2.78;;;26.20;49.30;;;;;;5075162;28;20135;-58
2021/04/18 12:40:26;;;;;;;5.47;3.13;;;26.20;49.40;;;;;;5074351;28;20028;-58
2021/04/18 12:42:52;;;;;;;5.85;3.72;;;26.20;49.30;;;;;;5073799;28;20024;-58
2021/04/18 12:45:18;;;;;;;3.60;2.80;;;26.20;49.40;;;;;;5074885;28;20112;-58
2021/04/18 12:47:46;;;;;;;6.38;3.38;;;26.20;49.40;;;;;;5073771;28;20032;-56
2021/04/18 12:50:12;;;;;;;4.35;3.08;;;26.20;49.40;;;;;;5073615;28;20122;-58